Stations météo

réclame
Mon MeteoGroup
Leuchtturm Kiel, Allemagne (10044): Température de l'air & dewpoint: 13.06.2019 18:00:00 - 19.06.2019 18:00:00 (CEST)Leuchtturm Kiel, Allemagne (10044): Vitesse du vent & gusts: 13.06.2019 18:00:00 - 19.06.2019 18:00:00 (CEST)Leuchtturm Kiel, Allemagne (10044): Direction du vent: 13.06.2019 18:00:00 - 19.06.2019 18:00:00 (CEST)Leuchtturm Kiel, Allemagne (10044): reduced air pressure: 13.06.2019 18:00:00 - 19.06.2019 18:00:00 (CEST)Leuchtturm Kiel, Allemagne (10044): Ensoleillement: 13.06.2019 18:00:00 - 19.06.2019 18:00:00 (CEST)
Date & Time tt [°C] td [°C] ff [km/h] ff [knt] fx [km/h] fx [knt] dd ppp [hPa] sd [min]
19.06.2019 18:00:00 25,5 16,0 9 5 36 19 NE 1006,3 33
19.06.2019 17:00:00 25,4 16,4 22 12 29 16 SE 1006,0 3
19.06.2019 16:00:00 24,8 16,4 21 12 50 27 SE 1006,2 32
19.06.2019 15:00:00 23,8 16,1 31 17 38 20 ESE 1007,3 60
19.06.2019 14:00:00 20,2 16,5 32 17 36 19 E 1007,8 60
19.06.2019 13:00:00 19,7 14,6 35 19 39 21 E 1008,3 56
19.06.2019 12:00:00 19,2 14,8 35 19 39 21 E 1008,7 59
19.06.2019 11:00:00 17,8 15,1 30 16 37 20 E 1009,3 58
19.06.2019 10:00:00 18,7 15,3 21 11 28 15 NE 1009,7 60
19.06.2019 09:00:00 18,4 14,9 25 14 29 16 ENE 1009,7 46
19.06.2019 08:00:00 17,7 15,4 18 10 28 15 NNE 1010,2 20
19.06.2019 07:00:00 18,0 14,9 23 12 27 15 ESE 1009,9 45
19.06.2019 06:00:00 18,2 14,7 20 11 23 13 ESE 1010,3 16
19.06.2019 05:00:00 18,2 15,3 18 10 22 12 E 1010,7 0
19.06.2019 04:00:00 18,1 15,2 16 9 18 10 E 1011,4 0
19.06.2019 03:00:00 18,8 15,2 14 8 21 11 E 1011,8 0
19.06.2019 02:00:00 19,1 15,5 9 5 21 12 SE 1012,2 0
19.06.2019 01:00:00 19,2 15,0 19 10 26 14 E 1012,6 0
19.06.2019 00:00:00 21,2 13,8 27 14 35 19 ESE 1012,8 0
18.06.2019 23:00:00 21,5 12,8 19 11 39 21 ESE 1013,0 0
18.06.2019 22:00:00 19,2 15,1 19 10 32 17 E 1013,5 4
18.06.2019 21:00:00 20,0 14,1 23 12 58 31 E 1013,0 0
18.06.2019 20:00:00 19,2 14,3 29 16 34 18 NE 1013,0 0
18.06.2019 19:00:00 16,0 15,0 35 19 89 48 WSW 1014,7 0
18.06.2019 18:00:00 24,1 12,6 22 12 70 38 SSW 1013,1 24
18.06.2019 17:00:00 24,8 14,7 24 13 49 26 SSW 1013,8 12
18.06.2019 16:00:00 25,9 14,3 29 16 31 17 S 1013,9 43
18.06.2019 15:00:00 24,4 15,3 17 9 28 15 SSE 1014,6 59
18.06.2019 14:00:00 24,1 15,2 21 11 30 16 SSE 1015,3 50
18.06.2019 13:00:00 24,3 14,7 24 13 30 16 S 1015,6 56
18.06.2019 12:00:00 23,4 15,4 21 11 26 14 S 1016,0 56
18.06.2019 11:00:00 21,7 15,5 26 14 28 15 S 1016,2 57
18.06.2019 10:00:00 20,6 15,1 22 12 25 13 S 1016,5 25
18.06.2019 09:00:00 18,9 15,0 18 10 34 18 SSW 1016,8 45
18.06.2019 08:00:00 18,4 14,7 16 9 29 16 S 1017,1 54
18.06.2019 07:00:00 17,8 14,4 19 11 29 16 S 1017,3 26
18.06.2019 06:00:00 17,3 14,5 10 5 36 19 SSW 1017,5 7
18.06.2019 05:00:00 17,9 14,2 36 20 44 24 S 1017,7 0
18.06.2019 04:00:00 18,0 14,4 34 18 37 20 SSE 1018,0 0
18.06.2019 03:00:00 18,4 14,2 30 16 35 19 SSE 1018,6 0
18.06.2019 02:00:00 18,2 13,7 33 18 38 21 SE 1018,8 0
18.06.2019 01:00:00 17,9 13,5 29 16 35 19 SE 1019,0 0
18.06.2019 00:00:00 18,0 13,1 26 14 37 20 SE 1019,2 0
17.06.2019 23:00:00 18,2 14,1 26 14 32 17 SE 1019,3 0
17.06.2019 22:00:00 18,5 14,4 29 15 41 22 ESE 1019,4 37
17.06.2019 21:00:00 19,1 13,8 35 19 42 23 ESE 1019,4 60
17.06.2019 20:00:00 19,1 14,1 35 19 38 21 E 1019,9 60
17.06.2019 19:00:00 19,1 13,7 31 17 35 19 E 1020,1 60
17.06.2019 18:00:00 19,5 13,8 29 16 35 19 E 1020,6 60
17.06.2019 17:00:00 19,2 13,8 29 15 31 17 ESE 1021,1 60
17.06.2019 16:00:00 19,1 14,1 28 15 31 17 E 1021,4 60
17.06.2019 15:00:00 22,4 12,7 8 4 10 6 ENE 1021,4 53
17.06.2019 14:00:00 22,7 13,9 3 1 13 7 NW 1021,5 47
17.06.2019 13:00:00 21,6 13,0 11 6 23 12 WNW 1021,8 60
17.06.2019 12:00:00 20,3 12,7 18 10 31 17 WSW 1022,0 54
17.06.2019 11:00:00 20,0 12,5 21 11 37 20 SW 1022,1 55
17.06.2019 10:00:00 18,7 12,0 28 15 30 16 SSW 1022,0 60
17.06.2019 09:00:00 17,6 12,8 19 11 24 13 SSW 1021,8 60
17.06.2019 08:00:00 16,0 12,8 19 10 24 13 SSW 1021,6 60
17.06.2019 07:00:00 15,3 12,4 18 10 21 11 SSW 1021,3 60
17.06.2019 06:00:00 15,2 13,2 16 9 22 12 SSW 1021,3 48
17.06.2019 05:00:00 15,0 13,5 18 10 21 11 SW 1021,3 0
17.06.2019 04:00:00 15,0 13,3 14 7 18 10 WSW 1021,3 0
17.06.2019 03:00:00 15,4 14,1 17 9 21 11 WSW 1021,2 0
17.06.2019 02:00:00 16,0 13,6 14 8 17 9 W 1021,1 0
17.06.2019 01:00:00 16,0 14,4 13 7 19 11 WSW 1021,0 0
17.06.2019 00:00:00 16,2 14,5 14 8 16 9 SW 1021,1 0
16.06.2019 23:00:00 16,2 14,5 11 6 15 8 SW 1020,8 0
16.06.2019 22:00:00 16,8 12,3 8 4 10 5 E 1020,2 0
16.06.2019 21:00:00 16,0 13,5 6 4 16 9 N 1020,3 5
16.06.2019 20:00:00 15,9 13,8 22 12 43 23 NW 1020,4 0
16.06.2019 19:00:00 18,5 10,8 23 12 25 14 E 1019,7 0
16.06.2019 18:00:00 17,9 13,1 20 11 22 12 E 1019,7 41
16.06.2019 17:00:00 19,9 10,5 11 6 13 7 ENE 1020,0 60
16.06.2019 16:00:00 21,3 12,3 3 2 18 10 SSW 1020,3 31
16.06.2019 15:00:00 19,2 10,6 16 9 22 12 W 1020,0 3
16.06.2019 14:00:00 19,1 10,2 22 12 28 15 W 1019,8 41
16.06.2019 13:00:00 18,3 11,8 17 9 20 11 W 1019,3 58
16.06.2019 12:00:00 17,6 11,9 7 4 15 8 SSW 1019,4 58
16.06.2019 11:00:00 16,9 11,7 16 8 21 11 W 1018,8 45
16.06.2019 10:00:00 16,1 11,1 17 9 25 13 W 1018,6 55
16.06.2019 09:00:00 15,5 11,8 12 7 18 10 W 1018,4 60
16.06.2019 08:00:00 14,5 11,6 17 9 24 13 W 1017,9 60
16.06.2019 07:00:00 14,1 11,8 21 11 30 16 WSW 1017,3 60
16.06.2019 06:00:00 13,7 12,2 26 14 35 19 W 1016,7 30
16.06.2019 05:00:00 13,7 12,3 29 16 36 20 WSW 1016,2 0
16.06.2019 04:00:00 14,3 12,2 29 16 36 19 WSW 1015,7 0
16.06.2019 03:00:00 14,7 12,5 29 16 42 23 WSW 1015,8 0
16.06.2019 02:00:00 15,3 11,7 36 19 45 24 W 1015,2 0
16.06.2019 01:00:00 15,4 12,4 36 19 46 25 W 1015,1 0
16.06.2019 00:00:00 15,5 12,9 43 23 55 30 W 1014,6 0
15.06.2019 23:00:00 16,0 14,6 41 22 48 26 W 1013,6 0
15.06.2019 22:00:00 17,2 15,0 32 17 49 26 WSW 1012,2 7
15.06.2019 21:00:00 18,2 14,9 45 24 51 28 WSW 1010,9 54
15.06.2019 20:00:00 19,0 15,4 29 16 39 21 W 1011,3 15
15.06.2019 19:00:00 17,4 16,0 21 12 26 14 SE 1011,8 0
15.06.2019 18:00:00 17,7 16,8 11 6 25 13 S 1010,9 0
15.06.2019 17:00:00 17,8 15,5 18 10 48 26 ESE 1010,3 0
15.06.2019 16:00:00 16,9 14,4 41 22 63 34 ESE 1009,3 14
15.06.2019 15:00:00 17,4 13,0 51 28 64 35 E 1009,2 4
15.06.2019 14:00:00 17,1 13,3 49 26 72 39 E 1009,9 0
15.06.2019 13:00:00 18,1 15,5 55 30 82 44 ESE 1008,5 0
15.06.2019 12:00:00 18,7 14,2 68 37 81 44 ESE 1008,3 0
15.06.2019 11:00:00 18,6 15,8 74 40 84 45 E 1007,6 0
15.06.2019 10:00:00 17,6 16,1 34 18 41 22 ESE 1011,4 0
15.06.2019 09:00:00 17,4 15,8 34 19 40 21 E 1011,6 0
15.06.2019 08:00:00 17,3 15,9 23 13 29 16 E 1011,7 0
15.06.2019 07:00:00 17,3 15,6 27 15 33 18 E 1011,8 0
15.06.2019 06:00:00 17,2 15,5 33 18 39 21 E 1012,2 0
15.06.2019 05:00:00 17,0 15,2 34 18 38 20 E 1012,0 0
15.06.2019 04:00:00 16,7 15,1 32 17 35 19 E 1013,0 0
15.06.2019 03:00:00 17,3 15,0 33 18 44 24 E 1014,0 0
15.06.2019 02:00:00 18,1 15,1 39 21 44 24 ENE 1014,3 0
15.06.2019 01:00:00 17,6 15,8 36 20 38 21 NE 1015,0 0
15.06.2019 00:00:00 17,9 15,9 25 13 33 18 ENE 1015,8 0
14.06.2019 23:00:00 17,4 15,3 26 14 36 19 ENE 1015,9 0
14.06.2019 22:00:00 18,8 13,1 26 14 31 17 NE 1015,7 40
14.06.2019 21:00:00 19,3 15,0 10 5 14 7 E 1015,6 60
14.06.2019 20:00:00 18,8 13,5 6 3 21 11 S 1015,8 42
14.06.2019 19:00:00 18,6 13,5 10 5 68 37 SSE 1016,1 20
14.06.2019 18:00:00 21,8 12,4 18 10 46 25 SE 1015,5 18
14.06.2019 17:00:00 21,2 12,3 36 20 60 32 SE 1015,3 28
14.06.2019 16:00:00 20,0 14,2 34 19 43 23 SE 1016,0 25
14.06.2019 15:00:00 19,5 14,0 22 12 36 19 ESE 1016,5 9
14.06.2019 14:00:00 20,4 13,0 32 17 41 22 ESE 1016,3 31
14.06.2019 13:00:00 19,3 13,2 29 15 35 19 ESE 1016,8 60
14.06.2019 12:00:00 19,4 12,0 25 14 29 15 ESE 1017,0 51
14.06.2019 11:00:00 20,6 10,0 21 12 29 15 S 1017,3 60
14.06.2019 10:00:00 19,0 11,0 23 13 27 14 S 1017,3 57
14.06.2019 09:00:00 17,0 11,5 19 10 32 17 SSW 1017,0 60
14.06.2019 08:00:00 15,7 11,4 23 12 27 15 S 1016,4 45
14.06.2019 07:00:00 15,1 12,1 22 12 29 16 S 1015,9 22
14.06.2019 06:00:00 15,1 11,6 19 10 23 13 S 1015,8 28
14.06.2019 05:00:00 15,1 11,7 18 10 24 13 S 1015,7 0
14.06.2019 04:00:00 15,0 12,3 21 11 24 13 SSW 1015,5 0
14.06.2019 03:00:00 15,8 12,0 21 12 27 15 S 1015,3 0
14.06.2019 02:00:00 16,4 11,5 14 8 21 11 SE 1015,2 0
14.06.2019 01:00:00 16,4 12,2 7 4 49 27 E 1015,0 0
14.06.2019 00:00:00 15,9 14,3 23 12 27 14 SE 1014,2 0
13.06.2019 23:00:00 17,4 13,0 16 9 28 15 SE 1013,8 0
13.06.2019 22:00:00 17,3 13,7 21 11 37 20 SE 1013,5 10
13.06.2019 21:00:00 18,9 10,1 9 5 16 9 E 1013,3 21
13.06.2019 20:00:00 19,2 9,6 9 5 34 18 NE 1012,9 21
13.06.2019 19:00:00 21,1 8,7 8 4 30 16 SW 1012,5 26
13.06.2019 18:00:00 21,7 7,8 31 17 37 20 SW 1012,5 57

tt = Température de l'air
td = dewpoint
ff = Vitesse du vent
fx = gusts
dd = Direction du vent
ppp = reduced air pressure
sd = Ensoleillement

stations d'obs. à proximité